sensor_id;sensor_type;location;lat;lon;timestamp;P1;durP1;ratioP1;P2;durP2;ratioP2
19879;SDS011;10102;50.828;4.416;2024-01-11T00:01:34;33.73;;;16.27;;
19879;SDS011;10102;50.828;4.416;2024-01-11T00:04:00;39.70;;;17.93;;
19879;SDS011;10102;50.828;4.416;2024-01-11T00:06:26;42.83;;;17.57;;
19879;SDS011;10102;50.828;4.416;2024-01-11T00:08:52;38.60;;;16.97;;
19879;SDS011;10102;50.828;4.416;2024-01-11T00:11:18;39.27;;;16.80;;
19879;SDS011;10102;50.828;4.416;2024-01-11T00:13:45;39.30;;;17.47;;
19879;SDS011;10102;50.828;4.416;2024-01-11T00:16:10;34.90;;;16.73;;
19879;SDS011;10102;50.828;4.416;2024-01-11T00:18:36;39.10;;;18.40;;
19879;SDS011;10102;50.828;4.416;2024-01-11T00:21:02;43.37;;;18.20;;
19879;SDS011;10102;50.828;4.416;2024-01-11T00:23:27;42.13;;;18.47;;
19879;SDS011;10102;50.828;4.416;2024-01-11T00:25:53;39.70;;;17.37;;
19879;SDS011;10102;50.828;4.416;2024-01-11T00:28:19;42.37;;;17.33;;
19879;SDS011;10102;50.828;4.416;2024-01-11T00:30:45;43.40;;;17.47;;
19879;SDS011;10102;50.828;4.416;2024-01-11T00:33:11;40.67;;;17.17;;
19879;SDS011;10102;50.828;4.416;2024-01-11T00:35:37;35.60;;;17.30;;
19879;SDS011;10102;50.828;4.416;2024-01-11T00:38:03;36.43;;;16.70;;
19879;SDS011;10102;50.828;4.416;2024-01-11T00:40:28;36.27;;;18.10;;
19879;SDS011;10102;50.828;4.416;2024-01-11T00:42:54;35.33;;;17.27;;
19879;SDS011;10102;50.828;4.416;2024-01-11T00:45:20;39.57;;;16.40;;
19879;SDS011;10102;50.828;4.416;2024-01-11T00:47:46;37.97;;;17.50;;
19879;SDS011;10102;50.828;4.416;2024-01-11T00:50:12;36.77;;;17.27;;
19879;SDS011;10102;50.828;4.416;2024-01-11T00:52:38;38.70;;;17.43;;
19879;SDS011;10102;50.828;4.416;2024-01-11T00:55:04;43.30;;;16.73;;
19879;SDS011;10102;50.828;4.416;2024-01-11T00:57:30;34.93;;;16.70;;
19879;SDS011;10102;50.828;4.416;2024-01-11T00:59:56;37.27;;;17.60;;
19879;SDS011;10102;50.828;4.416;2024-01-11T01:02:22;39.77;;;17.33;;
19879;SDS011;10102;50.828;4.416;2024-01-11T01:04:48;37.53;;;16.00;;
19879;SDS011;10102;50.828;4.416;2024-01-11T01:07:14;38.63;;;16.87;;
19879;SDS011;10102;50.828;4.416;2024-01-11T01:09:40;36.67;;;16.30;;
19879;SDS011;10102;50.828;4.416;2024-01-11T01:12:06;36.73;;;17.27;;
19879;SDS011;10102;50.828;4.416;2024-01-11T01:14:32;37.40;;;17.70;;
19879;SDS011;10102;50.828;4.416;2024-01-11T01:16:58;36.93;;;17.90;;
19879;SDS011;10102;50.828;4.416;2024-01-11T01:19:23;35.97;;;17.27;;
19879;SDS011;10102;50.828;4.416;2024-01-11T01:21:49;41.17;;;18.17;;
19879;SDS011;10102;50.828;4.416;2024-01-11T01:24:15;36.93;;;18.00;;
19879;SDS011;10102;50.828;4.416;2024-01-11T01:26:41;33.47;;;16.53;;
19879;SDS011;10102;50.828;4.416;2024-01-11T01:29:07;40.03;;;17.17;;
19879;SDS011;10102;50.828;4.416;2024-01-11T01:31:32;36.37;;;17.37;;
19879;SDS011;10102;50.828;4.416;2024-01-11T01:34:02;42.20;;;17.50;;
19879;SDS011;10102;50.828;4.416;2024-01-11T01:36:29;37.53;;;16.83;;
19879;SDS011;10102;50.828;4.416;2024-01-11T01:38:54;34.67;;;16.83;;
19879;SDS011;10102;50.828;4.416;2024-01-11T01:41:20;46.03;;;19.30;;
19879;SDS011;10102;50.828;4.416;2024-01-11T01:43:47;40.77;;;16.60;;
19879;SDS011;10102;50.828;4.416;2024-01-11T01:46:13;40.60;;;17.73;;
19879;SDS011;10102;50.828;4.416;2024-01-11T01:48:44;42.63;;;18.43;;
19879;SDS011;10102;50.828;4.416;2024-01-11T01:51:10;48.33;;;18.90;;
19879;SDS011;10102;50.828;4.416;2024-01-11T01:53:37;42.30;;;19.03;;
19879;SDS011;10102;50.828;4.416;2024-01-11T01:56:02;42.97;;;18.37;;
19879;SDS011;10102;50.828;4.416;2024-01-11T01:58:29;39.40;;;18.43;;
19879;SDS011;10102;50.828;4.416;2024-01-11T02:00:55;39.60;;;17.13;;
19879;SDS011;10102;50.828;4.416;2024-01-11T02:03:22;44.10;;;17.40;;
19879;SDS011;10102;50.828;4.416;2024-01-11T02:05:51;39.90;;;18.57;;
19879;SDS011;10102;50.828;4.416;2024-01-11T02:08:18;40.17;;;17.53;;
19879;SDS011;10102;50.828;4.416;2024-01-11T02:10:48;34.77;;;17.20;;
19879;SDS011;10102;50.828;4.416;2024-01-11T02:13:14;37.87;;;17.40;;
19879;SDS011;10102;50.828;4.416;2024-01-11T02:15:41;40.33;;;18.00;;
19879;SDS011;10102;50.828;4.416;2024-01-11T02:18:06;42.67;;;18.27;;
19879;SDS011;10102;50.828;4.416;2024-01-11T02:20:32;36.37;;;17.10;;
19879;SDS011;10102;50.828;4.416;2024-01-11T02:22:58;37.27;;;16.87;;
19879;SDS011;10102;50.828;4.416;2024-01-11T02:25:28;31.13;;;16.97;;
19879;SDS011;10102;50.828;4.416;2024-01-11T02:27:54;41.23;;;17.83;;
19879;SDS011;10102;50.828;4.416;2024-01-11T02:30:20;38.23;;;18.10;;
19879;SDS011;10102;50.828;4.416;2024-01-11T02:32:47;36.43;;;16.77;;
19879;SDS011;10102;50.828;4.416;2024-01-11T02:35:17;36.10;;;17.30;;
19879;SDS011;10102;50.828;4.416;2024-01-11T02:37:44;41.90;;;17.20;;
19879;SDS011;10102;50.828;4.416;2024-01-11T02:40:10;34.27;;;16.87;;
19879;SDS011;10102;50.828;4.416;2024-01-11T02:42:38;32.40;;;16.07;;
19879;SDS011;10102;50.828;4.416;2024-01-11T02:45:04;42.37;;;17.10;;
19879;SDS011;10102;50.828;4.416;2024-01-11T02:47:30;36.27;;;16.93;;
19879;SDS011;10102;50.828;4.416;2024-01-11T02:49:57;39.33;;;17.73;;
19879;SDS011;10102;50.828;4.416;2024-01-11T02:52:22;39.27;;;17.90;;
19879;SDS011;10102;50.828;4.416;2024-01-11T02:54:48;32.93;;;16.73;;
19879;SDS011;10102;50.828;4.416;2024-01-11T02:57:14;36.97;;;17.40;;
19879;SDS011;10102;50.828;4.416;2024-01-11T02:59:40;33.33;;;17.40;;
19879;SDS011;10102;50.828;4.416;2024-01-11T03:02:06;37.03;;;17.67;;
19879;SDS011;10102;50.828;4.416;2024-01-11T03:04:32;35.40;;;17.37;;
19879;SDS011;10102;50.828;4.416;2024-01-11T03:06:58;34.47;;;16.83;;
19879;SDS011;10102;50.828;4.416;2024-01-11T03:09:24;37.03;;;17.10;;
19879;SDS011;10102;50.828;4.416;2024-01-11T03:11:50;36.20;;;17.00;;
19879;SDS011;10102;50.828;4.416;2024-01-11T03:14:16;35.97;;;17.50;;
19879;SDS011;10102;50.828;4.416;2024-01-11T03:16:42;35.67;;;18.50;;
19879;SDS011;10102;50.828;4.416;2024-01-11T03:19:08;37.90;;;16.80;;
19879;SDS011;10102;50.828;4.416;2024-01-11T03:21:34;31.70;;;17.70;;
19879;SDS011;10102;50.828;4.416;2024-01-11T03:24:00;36.67;;;16.97;;
19879;SDS011;10102;50.828;4.416;2024-01-11T03:26:26;34.67;;;16.93;;
19879;SDS011;10102;50.828;4.416;2024-01-11T03:28:52;42.03;;;18.07;;
19879;SDS011;10102;50.828;4.416;2024-01-11T03:31:18;35.50;;;17.83;;
19879;SDS011;10102;50.828;4.416;2024-01-11T03:33:44;33.90;;;16.43;;
19879;SDS011;10102;50.828;4.416;2024-01-11T03:36:10;40.20;;;17.17;;
19879;SDS011;10102;50.828;4.416;2024-01-11T03:38:37;33.30;;;16.37;;
19879;SDS011;10102;50.828;4.416;2024-01-11T03:41:09;33.93;;;16.10;;
19879;SDS011;10102;50.828;4.416;2024-01-11T03:43:36;32.23;;;16.43;;
19879;SDS011;10102;50.828;4.416;2024-01-11T03:46:02;35.87;;;17.00;;
19879;SDS011;10102;50.828;4.416;2024-01-11T03:48:28;42.00;;;16.57;;
19879;SDS011;10102;50.828;4.416;2024-01-11T03:50:54;38.47;;;15.77;;
19879;SDS011;10102;50.828;4.416;2024-01-11T03:53:20;31.17;;;16.33;;
19879;SDS011;10102;50.828;4.416;2024-01-11T03:55:46;35.83;;;16.40;;
19879;SDS011;10102;50.828;4.416;2024-01-11T03:58:12;36.00;;;17.63;;
19879;SDS011;10102;50.828;4.416;2024-01-11T04:00:39;41.63;;;17.77;;
19879;SDS011;10102;50.828;4.416;2024-01-11T04:03:05;37.40;;;17.03;;
19879;SDS011;10102;50.828;4.416;2024-01-11T04:05:31;39.20;;;17.17;;
19879;SDS011;10102;50.828;4.416;2024-01-11T04:07:57;35.67;;;17.17;;
19879;SDS011;10102;50.828;4.416;2024-01-11T04:10:23;38.57;;;17.73;;
19879;SDS011;10102;50.828;4.416;2024-01-11T04:12:49;36.83;;;17.37;;
19879;SDS011;10102;50.828;4.416;2024-01-11T04:15:14;39.27;;;17.13;;
19879;SDS011;10102;50.828;4.416;2024-01-11T04:17:40;35.83;;;17.47;;
19879;SDS011;10102;50.828;4.416;2024-01-11T04:20:07;38.37;;;16.93;;
19879;SDS011;10102;50.828;4.416;2024-01-11T04:22:35;37.87;;;16.83;;
19879;SDS011;10102;50.828;4.416;2024-01-11T04:25:02;37.67;;;18.20;;
19879;SDS011;10102;50.828;4.416;2024-01-11T04:27:28;36.20;;;17.83;;
19879;SDS011;10102;50.828;4.416;2024-01-11T04:29:54;35.17;;;16.60;;
19879;SDS011;10102;50.828;4.416;2024-01-11T04:32:20;34.83;;;16.77;;
19879;SDS011;10102;50.828;4.416;2024-01-11T04:34:46;41.53;;;17.07;;
19879;SDS011;10102;50.828;4.416;2024-01-11T04:37:11;41.67;;;17.07;;
19879;SDS011;10102;50.828;4.416;2024-01-11T04:39:38;39.50;;;18.40;;
19879;SDS011;10102;50.828;4.416;2024-01-11T04:42:03;35.93;;;16.23;;
19879;SDS011;10102;50.828;4.416;2024-01-11T04:44:29;31.33;;;15.33;;
19879;SDS011;10102;50.828;4.416;2024-01-11T04:46:55;34.00;;;16.37;;
19879;SDS011;10102;50.828;4.416;2024-01-11T04:49:22;32.93;;;16.43;;
19879;SDS011;10102;50.828;4.416;2024-01-11T04:51:48;32.33;;;15.27;;
19879;SDS011;10102;50.828;4.416;2024-01-11T04:54:14;35.27;;;16.57;;
19879;SDS011;10102;50.828;4.416;2024-01-11T04:56:40;44.50;;;17.83;;
19879;SDS011;10102;50.828;4.416;2024-01-11T04:59:05;35.23;;;16.70;;
19879;SDS011;10102;50.828;4.416;2024-01-11T05:01:32;36.67;;;15.67;;
19879;SDS011;10102;50.828;4.416;2024-01-11T05:03:58;32.33;;;16.07;;
19879;SDS011;10102;50.828;4.416;2024-01-11T05:06:24;31.80;;;15.97;;
19879;SDS011;10102;50.828;4.416;2024-01-11T05:08:50;38.53;;;16.47;;
19879;SDS011;10102;50.828;4.416;2024-01-11T05:11:23;35.90;;;17.13;;
19879;SDS011;10102;50.828;4.416;2024-01-11T05:13:50;34.37;;;17.07;;
19879;SDS011;10102;50.828;4.416;2024-01-11T05:16:26;37.57;;;17.10;;
19879;SDS011;10102;50.828;4.416;2024-01-11T05:18:52;38.87;;;17.40;;
19879;SDS011;10102;50.828;4.416;2024-01-11T05:21:19;39.10;;;16.50;;
19879;SDS011;10102;50.828;4.416;2024-01-11T05:23:46;38.33;;;16.80;;
19879;SDS011;10102;50.828;4.416;2024-01-11T05:26:15;34.93;;;15.40;;
19879;SDS011;10102;50.828;4.416;2024-01-11T05:28:42;35.43;;;16.57;;
19879;SDS011;10102;50.828;4.416;2024-01-11T05:31:11;42.63;;;16.83;;
19879;SDS011;10102;50.828;4.416;2024-01-11T05:33:39;40.57;;;16.93;;
19879;SDS011;10102;50.828;4.416;2024-01-11T05:36:06;41.67;;;17.57;;
19879;SDS011;10102;50.828;4.416;2024-01-11T05:38:32;33.20;;;17.03;;
19879;SDS011;10102;50.828;4.416;2024-01-11T05:40:59;38.67;;;17.20;;
19879;SDS011;10102;50.828;4.416;2024-01-11T05:43:25;34.17;;;16.33;;
19879;SDS011;10102;50.828;4.416;2024-01-11T05:45:51;35.10;;;15.33;;
19879;SDS011;10102;50.828;4.416;2024-01-11T05:48:17;35.73;;;15.70;;
19879;SDS011;10102;50.828;4.416;2024-01-11T05:50:45;35.37;;;16.30;;
19879;SDS011;10102;50.828;4.416;2024-01-11T05:53:13;37.00;;;16.23;;
19879;SDS011;10102;50.828;4.416;2024-01-11T05:55:39;34.17;;;16.87;;
19879;SDS011;10102;50.828;4.416;2024-01-11T05:58:05;45.80;;;16.50;;
19879;SDS011;10102;50.828;4.416;2024-01-11T06:00:32;41.17;;;17.43;;
19879;SDS011;10102;50.828;4.416;2024-01-11T06:03:03;34.27;;;16.97;;
19879;SDS011;10102;50.828;4.416;2024-01-11T06:05:30;38.77;;;17.20;;
19879;SDS011;10102;50.828;4.416;2024-01-11T06:07:56;40.90;;;17.20;;
19879;SDS011;10102;50.828;4.416;2024-01-11T06:10:22;34.57;;;17.60;;
19879;SDS011;10102;50.828;4.416;2024-01-11T06:12:47;33.50;;;17.00;;
19879;SDS011;10102;50.828;4.416;2024-01-11T06:15:13;43.00;;;17.23;;
19879;SDS011;10102;50.828;4.416;2024-01-11T06:17:39;39.33;;;18.23;;
19879;SDS011;10102;50.828;4.416;2024-01-11T06:20:05;39.90;;;17.30;;
19879;SDS011;10102;50.828;4.416;2024-01-11T06:22:31;36.13;;;16.50;;
19879;SDS011;10102;50.828;4.416;2024-01-11T06:24:57;37.93;;;18.00;;
19879;SDS011;10102;50.828;4.416;2024-01-11T06:27:24;33.90;;;16.63;;
19879;SDS011;10102;50.828;4.416;2024-01-11T06:29:50;33.30;;;16.13;;
19879;SDS011;10102;50.828;4.416;2024-01-11T06:32:16;37.50;;;17.87;;
19879;SDS011;10102;50.828;4.416;2024-01-11T06:34:42;39.23;;;17.40;;
19879;SDS011;10102;50.828;4.416;2024-01-11T06:37:12;41.77;;;17.87;;
19879;SDS011;10102;50.828;4.416;2024-01-11T06:39:40;38.17;;;18.40;;
19879;SDS011;10102;50.828;4.416;2024-01-11T06:44:38;42.60;;;17.70;;
19879;SDS011;10102;50.828;4.416;2024-01-11T06:47:05;40.30;;;19.03;;
19879;SDS011;10102;50.828;4.416;2024-01-11T06:49:31;44.83;;;18.50;;
19879;SDS011;10102;50.828;4.416;2024-01-11T06:51:56;48.17;;;23.33;;
19879;SDS011;10102;50.828;4.416;2024-01-11T06:54:22;43.17;;;20.13;;
19879;SDS011;10102;50.828;4.416;2024-01-11T06:56:48;38.07;;;17.77;;
19879;SDS011;10102;50.828;4.416;2024-01-11T06:59:14;39.37;;;17.47;;
19879;SDS011;10102;50.828;4.416;2024-01-11T07:01:40;36.63;;;17.73;;
19879;SDS011;10102;50.828;4.416;2024-01-11T07:04:06;39.30;;;18.50;;
19879;SDS011;10102;50.828;4.416;2024-01-11T07:06:33;44.30;;;20.27;;
19879;SDS011;10102;50.828;4.416;2024-01-11T07:08:59;38.60;;;18.10;;
19879;SDS011;10102;50.828;4.416;2024-01-11T07:11:24;47.73;;;17.67;;
19879;SDS011;10102;50.828;4.416;2024-01-11T07:13:50;35.73;;;18.00;;
19879;SDS011;10102;50.828;4.416;2024-01-11T07:16:16;43.87;;;18.17;;
19879;SDS011;10102;50.828;4.416;2024-01-11T07:18:42;35.90;;;17.73;;
19879;SDS011;10102;50.828;4.416;2024-01-11T07:21:08;40.70;;;17.53;;
19879;SDS011;10102;50.828;4.416;2024-01-11T07:23:33;39.80;;;18.00;;
19879;SDS011;10102;50.828;4.416;2024-01-11T07:25:59;41.53;;;19.63;;
19879;SDS011;10102;50.828;4.416;2024-01-11T07:28:25;36.10;;;17.77;;
19879;SDS011;10102;50.828;4.416;2024-01-11T07:30:51;39.20;;;17.00;;
19879;SDS011;10102;50.828;4.416;2024-01-11T07:33:18;33.07;;;16.57;;
19879;SDS011;10102;50.828;4.416;2024-01-11T07:35:46;36.40;;;18.30;;
19879;SDS011;10102;50.828;4.416;2024-01-11T07:38:13;32.17;;;17.13;;
19879;SDS011;10102;50.828;4.416;2024-01-11T07:40:39;35.60;;;17.20;;
19879;SDS011;10102;50.828;4.416;2024-01-11T07:43:05;36.47;;;17.40;;
19879;SDS011;10102;50.828;4.416;2024-01-11T07:45:31;38.10;;;18.27;;
19879;SDS011;10102;50.828;4.416;2024-01-11T07:47:56;39.97;;;17.93;;
19879;SDS011;10102;50.828;4.416;2024-01-11T07:50:22;39.63;;;17.83;;
19879;SDS011;10102;50.828;4.416;2024-01-11T07:52:48;41.70;;;19.23;;
19879;SDS011;10102;50.828;4.416;2024-01-11T07:55:14;43.67;;;19.17;;
19879;SDS011;10102;50.828;4.416;2024-01-11T07:57:40;39.43;;;19.27;;
19879;SDS011;10102;50.828;4.416;2024-01-11T08:00:06;37.73;;;17.77;;
19879;SDS011;10102;50.828;4.416;2024-01-11T08:02:33;43.33;;;18.47;;
19879;SDS011;10102;50.828;4.416;2024-01-11T08:04:59;42.77;;;18.67;;
19879;SDS011;10102;50.828;4.416;2024-01-11T08:07:26;52.50;;;19.97;;
19879;SDS011;10102;50.828;4.416;2024-01-11T08:09:55;43.30;;;18.70;;
19879;SDS011;10102;50.828;4.416;2024-01-11T08:12:21;38.73;;;18.40;;
19879;SDS011;10102;50.828;4.416;2024-01-11T08:14:47;37.30;;;18.77;;
19879;SDS011;10102;50.828;4.416;2024-01-11T08:17:13;36.53;;;17.27;;
19879;SDS011;10102;50.828;4.416;2024-01-11T08:19:40;42.73;;;19.63;;
19879;SDS011;10102;50.828;4.416;2024-01-11T08:22:06;42.60;;;18.87;;
19879;SDS011;10102;50.828;4.416;2024-01-11T08:24:32;38.60;;;18.87;;
19879;SDS011;10102;50.828;4.416;2024-01-11T08:26:59;51.10;;;20.00;;
19879;SDS011;10102;50.828;4.416;2024-01-11T08:29:25;34.00;;;18.43;;
19879;SDS011;10102;50.828;4.416;2024-01-11T08:31:53;44.90;;;19.40;;
19879;SDS011;10102;50.828;4.416;2024-01-11T08:34:22;44.77;;;19.70;;
19879;SDS011;10102;50.828;4.416;2024-01-11T08:36:48;39.83;;;18.10;;
19879;SDS011;10102;50.828;4.416;2024-01-11T08:39:14;45.70;;;18.63;;
19879;SDS011;10102;50.828;4.416;2024-01-11T08:41:40;39.77;;;17.90;;
19879;SDS011;10102;50.828;4.416;2024-01-11T08:44:06;41.93;;;18.67;;
19879;SDS011;10102;50.828;4.416;2024-01-11T08:46:32;43.33;;;19.40;;
19879;SDS011;10102;50.828;4.416;2024-01-11T08:48:58;43.07;;;19.37;;
19879;SDS011;10102;50.828;4.416;2024-01-11T08:51:26;40.63;;;19.13;;
19879;SDS011;10102;50.828;4.416;2024-01-11T08:53:52;44.20;;;20.13;;
19879;SDS011;10102;50.828;4.416;2024-01-11T08:56:18;46.40;;;20.00;;
19879;SDS011;10102;50.828;4.416;2024-01-11T08:58:44;44.37;;;19.13;;
19879;SDS011;10102;50.828;4.416;2024-01-11T09:01:10;51.87;;;21.97;;
19879;SDS011;10102;50.828;4.416;2024-01-11T09:03:36;42.77;;;18.87;;
19879;SDS011;10102;50.828;4.416;2024-01-11T09:06:02;41.17;;;19.23;;
19879;SDS011;10102;50.828;4.416;2024-01-11T09:08:29;40.73;;;20.60;;
19879;SDS011;10102;50.828;4.416;2024-01-11T09:10:56;47.47;;;20.37;;
19879;SDS011;10102;50.828;4.416;2024-01-11T09:13:25;53.50;;;19.30;;
19879;SDS011;10102;50.828;4.416;2024-01-11T09:15:52;43.83;;;20.20;;
19879;SDS011;10102;50.828;4.416;2024-01-11T09:18:19;38.00;;;18.03;;
19879;SDS011;10102;50.828;4.416;2024-01-11T09:20:45;52.27;;;20.43;;
19879;SDS011;10102;50.828;4.416;2024-01-11T09:23:11;46.40;;;19.53;;
19879;SDS011;10102;50.828;4.416;2024-01-11T09:25:36;48.23;;;20.57;;
19879;SDS011;10102;50.828;4.416;2024-01-11T09:28:02;45.97;;;21.03;;
19879;SDS011;10102;50.828;4.416;2024-01-11T09:30:28;49.97;;;20.43;;
19879;SDS011;10102;50.828;4.416;2024-01-11T09:32:54;56.93;;;21.80;;
19879;SDS011;10102;50.828;4.416;2024-01-11T09:35:21;39.80;;;20.97;;
19879;SDS011;10102;50.828;4.416;2024-01-11T09:40:45;47.30;;;21.03;;
19879;SDS011;10102;50.828;4.416;2024-01-11T09:43:14;45.83;;;19.83;;
19879;SDS011;10102;50.828;4.416;2024-01-11T09:45:49;50.20;;;21.20;;
19879;SDS011;10102;50.828;4.416;2024-01-11T09:48:17;43.23;;;20.17;;
19879;SDS011;10102;50.828;4.416;2024-01-11T09:50:45;52.83;;;22.73;;
19879;SDS011;10102;50.828;4.416;2024-01-11T09:53:12;51.50;;;23.53;;
19879;SDS011;10102;50.828;4.416;2024-01-11T09:55:39;51.13;;;22.37;;
19879;SDS011;10102;50.828;4.416;2024-01-11T09:58:04;53.43;;;22.93;;
19879;SDS011;10102;50.828;4.416;2024-01-11T10:00:32;47.63;;;21.23;;
19879;SDS011;10102;50.828;4.416;2024-01-11T10:02:59;52.57;;;22.13;;
19879;SDS011;10102;50.828;4.416;2024-01-11T10:05:24;46.77;;;22.60;;
19879;SDS011;10102;50.828;4.416;2024-01-11T10:07:52;42.17;;;20.93;;
19879;SDS011;10102;50.828;4.416;2024-01-11T10:10:18;57.97;;;25.73;;
19879;SDS011;10102;50.828;4.416;2024-01-11T10:12:44;43.77;;;21.67;;
19879;SDS011;10102;50.828;4.416;2024-01-11T10:15:10;50.60;;;23.37;;
19879;SDS011;10102;50.828;4.416;2024-01-11T10:17:43;57.20;;;26.40;;
19879;SDS011;10102;50.828;4.416;2024-01-11T10:20:10;50.67;;;23.23;;
19879;SDS011;10102;50.828;4.416;2024-01-11T10:22:42;53.77;;;23.10;;
19879;SDS011;10102;50.828;4.416;2024-01-11T10:25:09;49.20;;;23.83;;
19879;SDS011;10102;50.828;4.416;2024-01-11T10:27:41;57.92;;;23.27;;
19879;SDS011;10102;50.828;4.416;2024-01-11T10:30:09;43.13;;;22.15;;
19879;SDS011;10102;50.828;4.416;2024-01-11T10:32:38;47.47;;;22.58;;
19879;SDS011;10102;50.828;4.416;2024-01-11T10:35:04;45.42;;;23.63;;
19879;SDS011;10102;50.828;4.416;2024-01-11T10:37:31;46.70;;;23.85;;
19879;SDS011;10102;50.828;4.416;2024-01-11T10:40:03;48.00;;;24.35;;
19879;SDS011;10102;50.828;4.416;2024-01-11T10:42:41;49.95;;;24.38;;
19879;SDS011;10102;50.828;4.416;2024-01-11T10:45:19;48.50;;;24.58;;
19879;SDS011;10102;50.828;4.416;2024-01-11T10:50:44;47.80;;;24.83;;
19879;SDS011;10102;50.828;4.416;2024-01-11T10:56:12;50.20;;;30.50;;
19879;SDS011;10102;50.828;4.416;2024-01-11T10:58:41;45.63;;;25.38;;
19879;SDS011;10102;50.828;4.416;2024-01-11T11:01:10;45.53;;;25.92;;
19879;SDS011;10102;50.828;4.416;2024-01-11T11:03:37;42.42;;;26.30;;
19879;SDS011;10102;50.828;4.416;2024-01-11T11:06:07;38.80;;;24.08;;
19879;SDS011;10102;50.828;4.416;2024-01-11T11:08:33;41.72;;;24.85;;
19879;SDS011;10102;50.828;4.416;2024-01-11T11:11:00;47.00;;;26.65;;
19879;SDS011;10102;50.828;4.416;2024-01-11T11:13:28;42.08;;;25.73;;
19879;SDS011;10102;50.828;4.416;2024-01-11T11:15:54;42.85;;;25.48;;
19879;SDS011;10102;50.828;4.416;2024-01-11T11:18:23;44.03;;;24.80;;
19879;SDS011;10102;50.828;4.416;2024-01-11T11:20:50;43.10;;;26.35;;
19879;SDS011;10102;50.828;4.416;2024-01-11T11:23:18;40.55;;;23.85;;
19879;SDS011;10102;50.828;4.416;2024-01-11T11:25:48;46.90;;;27.33;;
19879;SDS011;10102;50.828;4.416;2024-01-11T11:28:15;51.53;;;29.27;;
19879;SDS011;10102;50.828;4.416;2024-01-11T11:30:43;44.55;;;26.88;;
19879;SDS011;10102;50.828;4.416;2024-01-11T11:35:50;41.58;;;25.63;;
19879;SDS011;10102;50.828;4.416;2024-01-11T11:38:37;46.25;;;27.38;;
19879;SDS011;10102;50.828;4.416;2024-01-11T11:41:03;53.55;;;30.83;;
19879;SDS011;10102;50.828;4.416;2024-01-11T11:43:29;41.72;;;25.27;;
19879;SDS011;10102;50.828;4.416;2024-01-11T11:45:56;42.47;;;25.92;;
19879;SDS011;10102;50.828;4.416;2024-01-11T11:51:07;39.78;;;24.48;;
19879;SDS011;10102;50.828;4.416;2024-01-11T11:53:43;36.38;;;22.95;;
19879;SDS011;10102;50.828;4.416;2024-01-11T11:56:11;35.83;;;23.20;;
19879;SDS011;10102;50.828;4.416;2024-01-11T11:58:39;40.97;;;23.58;;
19879;SDS011;10102;50.828;4.416;2024-01-11T12:01:05;30.70;;;22.02;;
19879;SDS011;10102;50.828;4.416;2024-01-11T12:03:32;41.42;;;24.27;;
19879;SDS011;10102;50.828;4.416;2024-01-11T12:06:02;38.28;;;22.27;;
19879;SDS011;10102;50.828;4.416;2024-01-11T12:08:28;34.78;;;22.23;;
19879;SDS011;10102;50.828;4.416;2024-01-11T12:10:54;35.50;;;20.73;;
19879;SDS011;10102;50.828;4.416;2024-01-11T12:13:20;34.10;;;21.52;;
19879;SDS011;10102;50.828;4.416;2024-01-11T12:15:47;37.28;;;21.98;;
19879;SDS011;10102;50.828;4.416;2024-01-11T12:18:13;34.13;;;21.00;;
19879;SDS011;10102;50.828;4.416;2024-01-11T12:20:39;36.10;;;21.08;;
19879;SDS011;10102;50.828;4.416;2024-01-11T12:23:04;34.50;;;20.30;;
19879;SDS011;10102;50.828;4.416;2024-01-11T12:25:31;31.95;;;21.40;;
19879;SDS011;10102;50.828;4.416;2024-01-11T12:27:57;33.22;;;21.00;;
19879;SDS011;10102;50.828;4.416;2024-01-11T12:30:23;34.03;;;21.08;;
19879;SDS011;10102;50.828;4.416;2024-01-11T12:32:50;32.95;;;20.80;;
19879;SDS011;10102;50.828;4.416;2024-01-11T12:35:16;33.33;;;21.27;;
19879;SDS011;10102;50.828;4.416;2024-01-11T12:37:55;34.13;;;20.70;;
19879;SDS011;10102;50.828;4.416;2024-01-11T12:40:23;37.53;;;20.55;;
19879;SDS011;10102;50.828;4.416;2024-01-11T12:42:49;34.47;;;19.33;;
19879;SDS011;10102;50.828;4.416;2024-01-11T12:45:15;42.25;;;19.67;;
19879;SDS011;10102;50.828;4.416;2024-01-11T12:47:44;32.15;;;19.33;;
19879;SDS011;10102;50.828;4.416;2024-01-11T12:50:11;31.85;;;18.75;;
19879;SDS011;10102;50.828;4.416;2024-01-11T12:52:37;32.80;;;17.63;;
19879;SDS011;10102;50.828;4.416;2024-01-11T12:55:04;29.25;;;16.63;;
19879;SDS011;10102;50.828;4.416;2024-01-11T12:57:32;31.08;;;18.13;;
19879;SDS011;10102;50.828;4.416;2024-01-11T13:00:11;31.15;;;17.27;;
19879;SDS011;10102;50.828;4.416;2024-01-11T13:02:38;34.75;;;17.60;;
19879;SDS011;10102;50.828;4.416;2024-01-11T13:05:05;35.15;;;17.45;;
19879;SDS011;10102;50.828;4.416;2024-01-11T13:07:32;32.22;;;17.65;;
19879;SDS011;10102;50.828;4.416;2024-01-11T13:09:59;33.25;;;16.70;;
19879;SDS011;10102;50.828;4.416;2024-01-11T13:12:26;32.72;;;16.92;;
19879;SDS011;10102;50.828;4.416;2024-01-11T13:14:52;33.85;;;15.82;;
19879;SDS011;10102;50.828;4.416;2024-01-11T13:17:18;32.50;;;15.95;;
19879;SDS011;10102;50.828;4.416;2024-01-11T13:19:44;33.47;;;16.80;;
19879;SDS011;10102;50.828;4.416;2024-01-11T13:22:10;31.75;;;16.65;;
19879;SDS011;10102;50.828;4.416;2024-01-11T13:24:36;34.10;;;16.02;;
19879;SDS011;10102;50.828;4.416;2024-01-11T13:27:02;28.60;;;15.13;;
19879;SDS011;10102;50.828;4.416;2024-01-11T13:29:28;30.98;;;15.70;;
19879;SDS011;10102;50.828;4.416;2024-01-11T13:31:53;34.67;;;15.32;;
19879;SDS011;10102;50.828;4.416;2024-01-11T13:34:19;29.92;;;15.73;;
19879;SDS011;10102;50.828;4.416;2024-01-11T13:36:45;36.45;;;16.42;;
19879;SDS011;10102;50.828;4.416;2024-01-11T13:39:11;30.75;;;14.30;;
19879;SDS011;10102;50.828;4.416;2024-01-11T13:41:38;31.75;;;15.57;;
19879;SDS011;10102;50.828;4.416;2024-01-11T13:44:05;31.33;;;16.45;;
19879;SDS011;10102;50.828;4.416;2024-01-11T13:46:32;30.10;;;15.32;;
19879;SDS011;10102;50.828;4.416;2024-01-11T13:48:58;30.98;;;15.05;;
19879;SDS011;10102;50.828;4.416;2024-01-11T13:51:24;32.90;;;15.82;;
19879;SDS011;10102;50.828;4.416;2024-01-11T13:53:50;34.75;;;16.60;;
19879;SDS011;10102;50.828;4.416;2024-01-11T13:56:15;40.45;;;15.25;;
19879;SDS011;10102;50.828;4.416;2024-01-11T13:58:41;34.97;;;16.02;;
19879;SDS011;10102;50.828;4.416;2024-01-11T14:01:09;38.88;;;15.30;;
19879;SDS011;10102;50.828;4.416;2024-01-11T14:03:36;27.73;;;15.30;;
19879;SDS011;10102;50.828;4.416;2024-01-11T14:06:02;28.45;;;14.70;;
19879;SDS011;10102;50.828;4.416;2024-01-11T14:08:28;30.52;;;15.32;;
19879;SDS011;10102;50.828;4.416;2024-01-11T14:10:53;28.13;;;14.70;;
19879;SDS011;10102;50.828;4.416;2024-01-11T14:13:19;31.75;;;15.57;;
19879;SDS011;10102;50.828;4.416;2024-01-11T14:15:45;31.60;;;14.63;;
19879;SDS011;10102;50.828;4.416;2024-01-11T14:18:13;42.65;;;17.05;;
19879;SDS011;10102;50.828;4.416;2024-01-11T14:20:38;40.78;;;15.00;;
19879;SDS011;10102;50.828;4.416;2024-01-11T14:23:04;38.60;;;17.98;;
19879;SDS011;10102;50.828;4.416;2024-01-11T14:25:30;30.45;;;15.57;;
19879;SDS011;10102;50.828;4.416;2024-01-11T14:27:56;34.40;;;15.77;;
19879;SDS011;10102;50.828;4.416;2024-01-11T14:30:22;33.63;;;16.25;;
19879;SDS011;10102;50.828;4.416;2024-01-11T14:32:48;35.92;;;16.73;;
19879;SDS011;10102;50.828;4.416;2024-01-11T14:35:14;29.58;;;15.85;;